EGCCEGJJ

Guest
Details From EGCC - Manchester
To EGJJ - Jersey
Flight Number -
Tags Generated
Created
Modified
Stats Distance 248 nm / 460 km
Max Altitude 0 ft / 0 m
Waypoints 3
Social Downloads 1
Likes 0
Share VATSIM

Download

Looking for another format? Having issues loading an existing format? Contact us
Advertisement - Login to hide

Notes

Generated

Route

EGCC JW EGJJ

ID Type Via Altitude Latitude Longitude Leg Dist Tot Dist Heading (true) Name
O EGCC APT - 0 ft / 0 m 53.33197˚ -2.31066˚ - 0 nm - -
JW NDB - 0 ft / 0 m 49.20591˚ -2.21992˚ 247 nm 247 nm 179° / 179° Jersey NDB
O EGJJ APT - 0 ft / 0 m 49.20699˚ -2.20693˚ 0 nm 248 nm 83° / 83° -

Altitude Profile

Advertisement - Login to hide

Weather


0- 5 10 15 20 25 30 35+ Temperature / ° C

Clouds and Precipitation
Forecast for 2018-05-22 00:00 UTC. Updated 2 hours ago

Ground ~20,000 ft ~40,000 ft Winds

EGCC

Details ICAO EGCC (MAN)
Name Manchester Intl
Region United Kingdom
Timezone Europe/London (UTC+1.0)
Stats Elevation 257 ft / 78 m (AMSL)
Location 53.347141° -2.283954°
Runways 2
Magnetic Variation 1.393° W

METAR

EGCC 220050Z AUTO VRB02KT 9999 NCD 11/09 Q1018 NOSIG

Decode

TAF

TAF EGCC 212253Z 2200/2306 VRB03KT 9999 FEW045 PROB40 2202/2209 7000 BECMG 2205/2208 04010KT PROB40 2219/2306 7000

Decode

Departure Runways

ID Width Length Bearing (true) Bearing (mag) Surface Threshold Offset Overrun Length
05L 151 ft / 46 m 9,981 ft / 3,042 m 50.99° 52.38° Asphalt 1,401 ft / 427 m 0 ft / 0 m
05R 151 ft / 46 m 9,952 ft / 3,033 m 50.97° 52.36° Asphalt 0 ft / 0 m 26 ft / 8 m
23L 151 ft / 46 m 9,952 ft / 3,033 m 231.00° 232.39° Asphalt 561 ft / 171 m 0 ft / 0 m
23R 151 ft / 46 m 9,981 ft / 3,042 m 231.02° 232.41° Asphalt 597 ft / 182 m 0 ft / 0 m

EGJJ

Details ICAO EGJJ (JER)
Name Jersey
Region United Kingdom
Timezone Europe/Jersey (UTC+1.0)
Stats Elevation 277 ft / 84 m (AMSL)
Location 49.207964° -2.195294°
Runways 1
Magnetic Variation 0.842° W

METAR

EGJJ 220050Z AUTO 02008KT CAVOK 12/10 Q1014

Decode

TAF

Not found

Destination Runways

ID Width Length Bearing (true) Bearing (mag) Surface Threshold Offset Overrun Length
09 151 ft / 46 m 5,593 ft / 1,705 m 82.73° 83.57° Asphalt 200 ft / 61 m 0 ft / 0 m
27 151 ft / 46 m 5,593 ft / 1,705 m 262.74° 263.58° Asphalt 302 ft / 92 m 0 ft / 0 m

Approach Navaids

Runway Type Ident Frequency Range Bearing (true) Bearing (mag) Slope Elevation
09 Localiser IJJ 110.90 MHz 18 nm / 33 km 82.59° 83.43° - 277 ft / 84 m (AMSL)
09 Glidescope IJJ 110.90 MHz 10 nm / 19 km 82.74° 83.58° 3.00° 277 ft / 84 m (AMSL)
09 DME IJJ 110.90 MHz 18 nm / 33 km - - - 287 ft / 87 m (AMSL)
27 Localiser IDD 110.30 MHz 18 nm / 33 km 262.70° 263.54° - 277 ft / 84 m (AMSL)
27 Glidescope IDD 110.30 MHz 10 nm / 19 km 262.74° 263.58° 3.00° 277 ft / 84 m (AMSL)
27 DME IDD 110.30 MHz 18 nm / 33 km - - - 289 ft / 88 m (AMSL)

Popular Alternatives